WEATHER DATA

TODAY
Time Temp. Dewp. Hum. Bar.
00:09 -1.2 -1.2 100 1007
00:19 -1.3 -1.3 100 1007.1
00:29 -1.3 -1.3 100 1007.1
00:39 -1.4 -1.4 100 1007.2
00:49 -1.4 -1.4 100 1007.3
00:59 -1.6 -1.6 100 1007.4
01:09 -1.7 -1.7 100 1007.3
01:20 -1.8 -1.8 100 1007.5
01:29 -1.9 -1.9 100 1007.7
01:39 -2 -2 100 1007.7
01:49 -2.1 -2.1 100 1007.7
02:00 -2.2 -2.2 100 1007.8
02:10 -2.2 -2.2 100 1007.9
02:20 -2.3 -2.3 100 1008
02:30 -2.4 -2.4 100 1008.1
02:40 -2.5 -2.6 99 1008.2
02:50 -2.5 -2.5 100 1008.1
03:00 -2.6 -2.7 99 1008.1
03:11 -2.8 -2.9 99 1008.2
03:20 -2.9 -3 99 1008.1
03:30 -2.9 -3 99 1008.3
03:41 -3 -3.1 99 1008.4
03:51 -3 -3 100 1008.7
04:01 -3.1 -3.1 100 1008.7
04:10 -3.1 -3.1 100 1008.7
04:21 -3.2 -3.2 100 1008.7
04:31 -3.3 -3.3 100 1008.7
04:41 -3.3 -3.3 100 1008.9
04:51 -3.3 -3.3 100 1008.9
05:01 -3.4 -3.5 99 1008.9
05:11 -3.4 -3.5 99 1009
05:21 -3.4 -3.4 100 1009.1
05:32 -3.5 -3.5 100 1009.2
05:42 -3.5 -3.5 100 1009.3
05:52 -3.5 -3.5 100 1009.3
06:02 -3.5 -3.5 100 1009.6
06:12 -3.5 -3.5 100 1009.8
06:22 -3.5 -3.5 100 1010.1
06:32 -3.5 -3.5 100 1010.3
06:43 -3.5 -3.5 100 1010.4
06:52 -3.5 -3.5 100 1010.6
07:02 -3.6 -3.6 100 1010.9
07:12 -3.6 -3.6 100 1011.1
07:23 -3.6 -3.6 100 1011.3
07:33 -3.6 -3.6 100 1011.5
07:42 -3.6 -3.6 100 1011.6
07:53 -3.7 -3.7 100 1011.9
08:03 -3.7 -3.7 100 1012.1
08:13 -3.7 -3.7 100 1012.4
08:23 -3.7 -3.7 100 1012.5
08:33 -3.7 -3.7 100 1012.7
08:43 -3.7 -3.7 100 1013
08:53 -3.7 -3.7 100 1013.2
09:04 -3.8 -3.8 100 1013.3
09:14 -3.8 -3.8 100 1013.5
09:24 -3.8 -3.8 100 1013.7
09:33 -3.8 -3.8 100 1014
09:44 -3.8 -3.8 100 1014.2
09:54 -3.8 -3.8 100 1014.3
10:04 -3.8 -3.8 100 1014.3
10:14 -3.7 -3.7 100 1014.5
10:24 -3.7 -3.7 100 1014.7
10:34 -3.6 -3.7 99 1014.8
10:44 -3.5 -3.7 98 1015
10:55 -3.4 -3.6 98 1015
11:05 -3.3 -3.7 97 1015
11:14 -3.3 -3.7 97 1015.1
11:25 -3.4 -3.8 97 1015.1
11:35 -3.3 -3.5 98 1015.1
11:45 -3.3 -3.7 97 1015.2
11:55 -3.2 -3.4 98 1015.2
12:05 -3.1 -3.5 97 1015.3
12:15 -3.1 -3.6 96 1015.3
12:25 -3.2 -3.8 95 1015.3

DAY STATISTIC

2019-01-18
TEMPERATURE
AVERAGE
-3.1
HIGH
-1.2
00:09
LOW
-3.8
09:04
PRESSURE
AVERAGE
1010.8
HIGH
1015.3
12:05
LOW
1007.0
00:09
DEWPOINT
AVERAGE
-3.1
HIGH
-1.2
00:09
LOW
-3.8
09:04
HUMIDITY
AVERAGE
99
HIGH
100
00:09
LOW
95
12:25
TEMPERATURE (°C)
LOW
-3.8
HIGH
-1.2
AVERAGE
-3.1
PRESSURE (hpa)
LOW
1007.0
HIGH
1015.3
AVERAGE
1010.8
DEVICE